createdAt,value
2023-05-21T00:00:28.754Z,33.20
2023-05-21T00:01:28.381Z,33.18
2023-05-21T00:02:28.469Z,33.21
2023-05-21T00:03:28.556Z,33.23
2023-05-21T00:04:28.420Z,33.23
2023-05-21T00:05:28.455Z,33.22
2023-05-21T00:06:28.635Z,33.23
2023-05-21T00:07:28.481Z,33.20
2023-05-21T00:08:28.461Z,33.20
2023-05-21T00:09:28.457Z,33.16
2023-05-21T00:10:28.465Z,33.13
2023-05-21T00:11:28.492Z,33.14
2023-05-21T00:12:28.472Z,33.17
2023-05-21T00:13:28.492Z,33.17
2023-05-21T00:14:28.492Z,33.14
2023-05-21T00:15:28.506Z,33.16
2023-05-21T00:16:28.541Z,33.22
2023-05-21T00:17:28.595Z,33.19
2023-05-21T00:18:28.517Z,33.19
2023-05-21T00:19:28.620Z,33.19
2023-05-21T00:20:28.550Z,33.19
2023-05-21T00:21:28.587Z,33.16
2023-05-21T00:22:28.583Z,33.17
2023-05-21T00:23:28.616Z,33.17
2023-05-21T00:24:28.613Z,33.17
2023-05-21T00:25:28.659Z,33.18
2023-05-21T00:26:28.662Z,33.19
2023-05-21T00:27:28.770Z,33.17
2023-05-21T00:28:28.908Z,33.18
2023-05-21T00:29:29.036Z,33.18
2023-05-21T00:30:29.068Z,33.16
2023-05-21T00:31:29.163Z,33.18
2023-05-21T00:32:29.141Z,33.21
2023-05-21T00:33:29.176Z,33.19
2023-05-21T00:34:29.209Z,33.19
2023-05-21T00:35:29.343Z,33.19
2023-05-21T00:36:29.470Z,33.21
2023-05-21T00:37:29.588Z,33.18
2023-05-21T00:38:29.663Z,33.19
2023-05-21T00:39:29.666Z,33.19
2023-05-21T00:40:29.700Z,33.21
2023-05-21T00:41:29.731Z,33.24
2023-05-21T00:42:29.808Z,33.22
2023-05-21T00:43:29.794Z,33.26
2023-05-21T00:44:29.825Z,33.21
2023-05-21T00:45:29.990Z,33.20
2023-05-21T00:46:29.906Z,33.18
2023-05-21T00:47:29.893Z,33.19
2023-05-21T00:48:29.807Z,33.20
2023-05-21T00:49:29.839Z,33.20
2023-05-21T00:50:29.844Z,33.22
2023-05-21T00:51:29.833Z,33.23
2023-05-21T00:52:29.857Z,33.22
2023-05-21T00:53:29.853Z,33.22
2023-05-21T00:54:29.859Z,33.19
2023-05-21T00:55:29.852Z,33.18
2023-05-21T00:56:29.855Z,33.21
2023-05-21T00:57:29.884Z,33.17
2023-05-21T00:58:29.860Z,33.19
2023-05-21T00:59:29.879Z,33.21
2023-05-21T01:00:29.948Z,33.23
2023-05-21T01:01:29.938Z,33.21
2023-05-21T01:02:29.990Z,33.23
2023-05-21T01:03:30.036Z,33.23
2023-05-21T01:04:30.013Z,33.21
2023-05-21T01:05:30.041Z,33.21
2023-05-21T01:06:30.087Z,33.23
2023-05-21T01:07:30.117Z,33.22
2023-05-21T01:08:30.193Z,33.22
2023-05-21T01:09:30.186Z,33.21
2023-05-21T01:10:30.224Z,33.24
2023-05-21T01:11:30.254Z,33.24
2023-05-21T01:12:30.293Z,33.23
2023-05-21T01:13:30.320Z,33.26
2023-05-21T01:14:30.362Z,33.22
2023-05-21T01:15:30.400Z,33.22
2023-05-21T01:16:30.435Z,33.23
2023-05-21T01:17:30.491Z,33.20
2023-05-21T01:18:30.529Z,33.20
2023-05-21T01:19:30.576Z,33.19
2023-05-21T01:20:30.583Z,33.22
2023-05-21T01:21:30.610Z,33.24
2023-05-21T01:22:30.651Z,33.27
2023-05-21T01:23:30.688Z,33.26
2023-05-21T01:24:30.729Z,33.26
2023-05-21T01:25:30.762Z,33.23
2023-05-21T01:26:30.827Z,33.23
2023-05-21T01:27:30.828Z,33.24
2023-05-21T01:28:30.861Z,33.23
2023-05-21T01:29:30.972Z,33.23
2023-05-21T01:30:30.965Z,33.25
2023-05-21T01:31:31.006Z,33.25
2023-05-21T01:32:31.093Z,33.25
2023-05-21T01:33:31.096Z,33.25
2023-05-21T01:34:31.109Z,33.21
2023-05-21T01:35:31.173Z,33.21
2023-05-21T01:36:31.170Z,33.20
2023-05-21T01:37:31.223Z,33.18
2023-05-21T01:38:31.251Z,33.21
2023-05-21T01:39:31.286Z,33.21
2023-05-21T01:40:31.351Z,33.18
2023-05-21T01:41:31.406Z,33.20
2023-05-21T01:42:31.431Z,33.21
2023-05-21T01:43:31.451Z,33.21
2023-05-21T01:44:31.502Z,33.22
2023-05-21T01:45:31.540Z,33.22
2023-05-21T01:46:31.588Z,33.19
2023-05-21T01:47:31.589Z,33.24
2023-05-21T01:48:31.595Z,33.22
2023-05-21T01:49:31.584Z,33.21
2023-05-21T01:50:31.589Z,33.17
2023-05-21T01:51:31.589Z,33.21
2023-05-21T01:52:31.591Z,33.22
2023-05-21T01:53:31.591Z,33.23
2023-05-21T01:54:31.590Z,33.26
2023-05-21T01:55:31.593Z,33.24
2023-05-21T01:56:31.622Z,33.24
2023-05-21T01:57:31.638Z,33.21
2023-05-21T01:58:31.600Z,33.23
2023-05-21T01:59:31.630Z,33.22
2023-05-21T02:00:31.656Z,33.21
2023-05-21T02:01:31.666Z,33.20
2023-05-21T02:02:31.674Z,33.26
2023-05-21T02:03:31.844Z,33.27
2023-05-21T02:04:31.730Z,33.27
2023-05-21T02:05:31.773Z,33.25
2023-05-21T02:06:31.819Z,33.24
2023-05-21T02:07:31.854Z,33.27
2023-05-21T02:08:31.886Z,33.23
2023-05-21T02:09:31.935Z,33.20
2023-05-21T02:10:31.984Z,33.21
2023-05-21T02:11:32.035Z,33.23
2023-05-21T02:12:32.099Z,33.20
2023-05-21T02:13:32.061Z,33.21
2023-05-21T02:14:32.148Z,33.20
2023-05-21T02:15:32.211Z,33.22
2023-05-21T02:16:32.226Z,33.23
2023-05-21T02:17:32.257Z,33.23
2023-05-21T02:18:32.302Z,33.24
2023-05-21T02:19:32.496Z,33.24
2023-05-21T02:20:32.370Z,33.22
2023-05-21T02:21:32.437Z,33.27
2023-05-21T02:22:32.439Z,33.24
2023-05-21T02:23:32.457Z,33.22
2023-05-21T02:24:32.510Z,33.25
2023-05-21T02:25:32.861Z,33.23
2023-05-21T02:26:32.607Z,33.21
2023-05-21T02:27:32.641Z,33.19
2023-05-21T02:28:32.689Z,33.22
2023-05-21T02:29:32.714Z,33.22
2023-05-21T02:30:32.792Z,33.27
2023-05-21T02:31:32.805Z,33.24
2023-05-21T02:32:32.877Z,33.26
2023-05-21T02:33:32.908Z,33.23
2023-05-21T02:34:32.913Z,33.24
2023-05-21T02:35:33.052Z,33.24
2023-05-21T02:36:33.060Z,33.30
2023-05-21T02:37:33.068Z,33.29
2023-05-21T02:38:33.107Z,33.30
2023-05-21T02:39:33.105Z,33.26
2023-05-21T02:40:33.187Z,33.23
2023-05-21T02:41:33.189Z,33.23
2023-05-21T02:42:33.226Z,33.27
2023-05-21T02:43:33.294Z,33.28
2023-05-21T02:44:33.363Z,33.31
2023-05-21T02:45:33.382Z,33.30
2023-05-21T02:46:33.400Z,33.27
2023-05-21T02:47:33.441Z,33.29
2023-05-21T02:48:33.479Z,33.29
2023-05-21T02:49:33.506Z,33.31
2023-05-21T02:50:33.531Z,33.29
2023-05-21T02:51:33.591Z,33.23
2023-05-21T02:52:33.721Z,33.24
2023-05-21T02:53:33.651Z,33.25
2023-05-21T02:54:33.682Z,33.26
2023-05-21T02:55:33.917Z,33.26
2023-05-21T02:56:33.776Z,33.27
2023-05-21T02:57:33.817Z,33.25
2023-05-21T02:58:33.857Z,33.24
2023-05-21T02:59:33.882Z,33.23
2023-05-21T03:00:33.949Z,33.25
2023-05-21T03:01:33.962Z,33.25
2023-05-21T03:02:34.056Z,33.25
2023-05-21T03:03:34.212Z,33.28
2023-05-21T03:04:34.096Z,33.24
2023-05-21T03:05:34.242Z,33.29
2023-05-21T03:06:34.164Z,33.26
2023-05-21T03:07:34.232Z,33.26
2023-05-21T03:08:34.262Z,33.29
2023-05-21T03:09:34.276Z,33.32
2023-05-21T03:10:34.344Z,33.31
2023-05-21T03:11:34.385Z,33.28
2023-05-21T03:12:34.453Z,33.28
2023-05-21T03:13:34.538Z,33.31
2023-05-21T03:14:34.522Z,33.29
2023-05-21T03:15:34.616Z,33.29
2023-05-21T03:16:34.711Z,33.23
2023-05-21T03:17:34.665Z,33.25
2023-05-21T03:18:34.664Z,33.27
2023-05-21T03:19:34.708Z,33.25
2023-05-21T03:20:34.756Z,33.24
2023-05-21T03:21:34.796Z,33.22
2023-05-21T03:22:34.831Z,33.24
2023-05-21T03:23:34.888Z,33.27
2023-05-21T03:24:34.920Z,33.30
2023-05-21T03:25:35.176Z,33.28
2023-05-21T03:26:35.012Z,33.31
2023-05-21T03:27:35.060Z,33.28
2023-05-21T03:28:35.128Z,33.30
2023-05-21T03:29:35.196Z,33.31
2023-05-21T03:30:35.201Z,33.31
2023-05-21T03:31:35.304Z,33.30
2023-05-21T03:32:35.306Z,33.30
2023-05-21T03:33:35.337Z,33.32
2023-05-21T03:34:35.378Z,33.33
2023-05-21T03:35:35.598Z,33.31
2023-05-21T03:36:35.452Z,33.31
2023-05-21T03:37:35.511Z,33.35
2023-05-21T03:38:37.060Z,33.34
2023-05-21T03:39:35.602Z,33.36
2023-05-21T03:40:35.652Z,33.32
2023-05-21T03:41:35.688Z,33.37
2023-05-21T03:42:35.727Z,33.32
2023-05-21T03:43:35.787Z,33.36
2023-05-21T03:44:35.842Z,33.38
2023-05-21T03:45:36.089Z,33.37
2023-05-21T03:46:35.938Z,33.38
2023-05-21T03:47:35.887Z,33.34
2023-05-21T03:48:35.874Z,33.33
2023-05-21T03:49:35.872Z,33.31
2023-05-21T03:50:35.911Z,33.34
2023-05-21T03:51:35.881Z,33.31
2023-05-21T03:52:35.885Z,33.29
2023-05-21T03:53:35.876Z,33.33
2023-05-21T03:54:35.902Z,33.30
2023-05-21T03:55:36.048Z,33.29
2023-05-21T03:56:35.889Z,33.34
2023-05-21T03:57:35.898Z,33.34
2023-05-21T03:58:35.926Z,33.35
2023-05-21T03:59:35.985Z,33.34
2023-05-21T04:00:36.026Z,33.36
2023-05-21T04:01:36.074Z,33.36
2023-05-21T04:02:36.156Z,33.36
2023-05-21T04:03:37.870Z,33.38
2023-05-21T04:04:36.195Z,33.40
2023-05-21T04:05:36.299Z,33.34
2023-05-21T04:06:36.166Z,33.36
2023-05-21T04:07:36.139Z,33.39
2023-05-21T04:08:36.143Z,33.40
2023-05-21T04:09:36.777Z,33.40
2023-05-21T04:10:36.185Z,33.40
2023-05-21T04:11:36.171Z,33.40
2023-05-21T04:12:36.177Z,33.35
2023-05-21T04:13:36.188Z,33.37
2023-05-21T04:14:36.169Z,33.36
2023-05-21T04:15:36.355Z,33.33
2023-05-21T04:16:36.259Z,33.34
2023-05-21T04:17:36.232Z,33.36
2023-05-21T04:18:36.186Z,33.36
2023-05-21T04:19:36.242Z,33.35
2023-05-21T04:20:36.218Z,33.36
2023-05-21T04:21:36.184Z,33.33
2023-05-21T04:22:36.181Z,33.33
2023-05-21T04:23:36.167Z,33.29
2023-05-21T04:24:36.156Z,33.30
2023-05-21T04:25:36.322Z,33.33
2023-05-21T04:26:36.194Z,33.31
2023-05-21T04:27:36.169Z,33.29
2023-05-21T04:28:36.194Z,33.32
2023-05-21T04:29:36.236Z,33.35
2023-05-21T04:30:36.288Z,33.33
2023-05-21T04:31:36.420Z,33.36
2023-05-21T04:32:36.444Z,33.38
2023-05-21T04:33:36.368Z,33.29
2023-05-21T04:34:36.377Z,33.29
2023-05-21T04:35:36.665Z,33.32
2023-05-21T04:36:36.379Z,33.29
2023-05-21T04:37:36.406Z,33.30
2023-05-21T04:38:36.403Z,33.33
2023-05-21T04:39:36.401Z,33.34
2023-05-21T04:40:36.688Z,33.38
2023-05-21T04:41:36.371Z,33.35
2023-05-21T04:42:36.383Z,33.37
2023-05-21T04:43:36.389Z,33.33
2023-05-21T04:44:36.362Z,33.32
2023-05-21T04:45:36.673Z,33.39
2023-05-21T04:46:36.464Z,33.31
2023-05-21T04:47:36.530Z,33.38
2023-05-21T04:48:36.540Z,33.40
2023-05-21T04:49:36.568Z,33.36
2023-05-21T04:50:36.634Z,33.36
2023-05-21T04:51:36.648Z,33.40
2023-05-21T04:52:36.699Z,33.32
2023-05-21T04:53:36.744Z,33.36
2023-05-21T04:54:36.767Z,33.37
2023-05-21T04:55:37.049Z,33.40
2023-05-21T04:56:36.879Z,33.39
2023-05-21T04:57:36.900Z,33.35
2023-05-21T04:58:36.935Z,33.41
2023-05-21T04:59:36.975Z,33.38
2023-05-21T05:00:37.123Z,33.38
2023-05-21T05:01:37.038Z,33.42
2023-05-21T05:02:37.135Z,33.39
2023-05-21T05:03:37.203Z,33.41
2023-05-21T05:04:37.164Z,33.41
2023-05-21T05:05:37.306Z,33.40
2023-05-21T05:06:37.235Z,33.40
2023-05-21T05:07:37.284Z,33.43
2023-05-21T05:08:37.315Z,33.43
2023-05-21T05:09:37.347Z,33.40
2023-05-21T05:10:37.386Z,33.40
2023-05-21T05:11:37.431Z,33.40
2023-05-21T05:12:37.442Z,33.39
2023-05-21T05:13:37.521Z,33.39
2023-05-21T05:14:37.526Z,33.39
2023-05-21T05:15:37.714Z,33.39
2023-05-21T05:16:37.663Z,33.40
2023-05-21T05:17:37.679Z,33.44
2023-05-21T05:18:37.681Z,33.40
2023-05-21T05:19:37.712Z,33.40
2023-05-21T05:20:37.754Z,33.35
2023-05-21T05:21:37.783Z,33.35
2023-05-21T05:22:37.835Z,33.35
2023-05-21T05:23:37.823Z,33.31
2023-05-21T05:24:37.862Z,33.27
2023-05-21T05:25:38.072Z,33.26
2023-05-21T05:26:37.952Z,33.23
2023-05-21T05:27:38.764Z,33.22
2023-05-21T05:28:37.965Z,33.20
2023-05-21T05:29:37.978Z,33.21
2023-05-21T05:30:38.085Z,33.23
2023-05-21T05:31:38.008Z,33.24
2023-05-21T05:32:38.091Z,33.24
2023-05-21T05:33:38.002Z,33.25
2023-05-21T05:34:38.023Z,33.27
2023-05-21T05:35:38.172Z,33.28
2023-05-21T05:36:38.007Z,33.28
2023-05-21T05:37:38.011Z,33.29
2023-05-21T05:38:38.008Z,33.29
2023-05-21T05:39:38.009Z,33.29
2023-05-21T05:40:38.111Z,33.30
2023-05-21T05:41:38.043Z,33.28
2023-05-21T05:42:38.063Z,33.27
2023-05-21T05:43:38.030Z,33.27
2023-05-21T05:44:38.047Z,33.26
2023-05-21T05:45:38.406Z,33.27
2023-05-21T05:46:38.246Z,33.25
2023-05-21T05:47:38.191Z,33.27
2023-05-21T05:48:38.160Z,33.23
2023-05-21T05:49:38.191Z,33.23
2023-05-21T05:50:38.232Z,33.21
2023-05-21T05:51:38.270Z,33.21
2023-05-21T05:52:38.334Z,33.24
2023-05-21T05:53:38.369Z,33.19
2023-05-21T05:54:38.387Z,33.20
2023-05-21T05:55:38.688Z,33.17
2023-05-21T05:56:38.466Z,33.19
2023-05-21T05:57:38.489Z,33.22
2023-05-21T05:58:38.518Z,33.23
2023-05-21T05:59:38.552Z,33.19
2023-05-21T06:00:38.621Z,33.19
2023-05-21T06:01:38.611Z,33.17
2023-05-21T06:02:38.754Z,33.16
2023-05-21T06:03:38.875Z,33.18
2023-05-21T06:04:38.719Z,33.18
2023-05-21T06:05:39.084Z,33.20
2023-05-21T06:06:38.769Z,33.17
2023-05-21T06:07:38.800Z,33.13
2023-05-21T06:08:38.839Z,33.13
2023-05-21T06:09:38.888Z,33.10
2023-05-21T06:10:38.908Z,33.08
2023-05-21T06:11:38.908Z,33.08
2023-05-21T06:12:38.933Z,33.06
2023-05-21T06:13:38.982Z,33.04
2023-05-21T06:14:39.012Z,32.96
2023-05-21T06:15:39.148Z,32.97
2023-05-21T06:16:39.195Z,32.93
2023-05-21T06:17:39.148Z,32.89
2023-05-21T06:18:39.128Z,32.88
2023-05-21T06:19:39.180Z,32.85
2023-05-21T06:20:39.166Z,32.87
2023-05-21T06:21:39.192Z,32.85
2023-05-21T06:22:39.240Z,32.82
2023-05-21T06:23:39.294Z,32.78
2023-05-21T06:24:39.268Z,32.79
2023-05-21T06:25:39.442Z,32.79
2023-05-21T06:26:39.274Z,32.76
2023-05-21T06:27:39.346Z,32.71
2023-05-21T06:28:39.367Z,32.70
2023-05-21T06:29:39.347Z,32.70
2023-05-21T06:30:39.409Z,32.70
2023-05-21T06:31:39.420Z,32.70
2023-05-21T06:32:39.616Z,32.69
2023-05-21T06:33:39.659Z,32.68
2023-05-21T06:34:39.530Z,32.64
2023-05-21T06:35:39.551Z,32.61
2023-05-21T06:36:39.596Z,32.62
2023-05-21T06:37:39.596Z,32.64
2023-05-21T06:38:39.605Z,32.63
2023-05-21T06:39:39.633Z,32.64
2023-05-21T06:40:39.637Z,32.60
2023-05-21T06:41:39.645Z,32.63
2023-05-21T06:42:39.738Z,32.60
2023-05-21T06:43:39.744Z,32.58
2023-05-21T06:44:39.751Z,32.56
2023-05-21T06:45:39.993Z,32.58
2023-05-21T06:46:39.781Z,32.56
2023-05-21T06:47:39.819Z,32.56
2023-05-21T06:48:39.801Z,32.59
2023-05-21T06:49:39.815Z,32.53
2023-05-21T06:50:39.801Z,32.57
2023-05-21T06:51:39.792Z,32.59
2023-05-21T06:52:39.817Z,32.55
2023-05-21T06:53:39.807Z,32.53
2023-05-21T06:54:39.866Z,32.50
2023-05-21T06:55:39.829Z,32.50
2023-05-21T06:56:39.864Z,32.50
2023-05-21T06:57:39.806Z,32.50
2023-05-21T06:58:39.810Z,32.44
2023-05-21T06:59:39.807Z,32.48
2023-05-21T07:00:39.807Z,32.43
2023-05-21T07:01:39.884Z,32.46
2023-05-21T07:02:39.879Z,32.43
2023-05-21T07:03:39.855Z,32.44
2023-05-21T07:04:39.938Z,32.41
2023-05-21T07:05:40.076Z,32.42
2023-05-21T07:06:39.811Z,32.39
2023-05-21T07:07:39.811Z,32.41
2023-05-21T07:08:39.812Z,32.40
2023-05-21T07:09:39.825Z,32.39
2023-05-21T07:10:39.824Z,32.39
2023-05-21T07:11:39.819Z,32.35
2023-05-21T07:12:39.829Z,32.34
2023-05-21T07:13:39.834Z,32.32
2023-05-21T07:14:39.815Z,32.31
2023-05-21T07:15:39.832Z,32.32
2023-05-21T07:16:39.874Z,32.35
2023-05-21T07:17:39.842Z,32.31
2023-05-21T07:18:39.830Z,32.36
2023-05-21T07:19:39.870Z,32.31
2023-05-21T07:20:39.845Z,32.32
2023-05-21T07:21:39.839Z,32.33
2023-05-21T07:22:39.871Z,32.30
2023-05-21T07:23:39.865Z,32.31
2023-05-21T07:24:39.849Z,32.27
2023-05-21T07:25:39.914Z,32.30
2023-05-21T07:26:39.901Z,32.30
2023-05-21T07:27:39.927Z,32.23
2023-05-21T07:28:39.925Z,32.24
2023-05-21T07:29:39.993Z,32.26
2023-05-21T07:30:40.026Z,32.26
2023-05-21T07:31:40.162Z,32.24
2023-05-21T07:32:40.162Z,32.24
2023-05-21T07:33:40.175Z,32.19
2023-05-21T07:34:40.205Z,32.20
2023-05-21T07:35:40.268Z,32.21
2023-05-21T07:36:40.295Z,32.22
2023-05-21T07:37:40.346Z,32.18
2023-05-21T07:38:40.382Z,32.18
2023-05-21T07:39:40.449Z,32.16
2023-05-21T07:40:40.556Z,32.20
2023-05-21T07:41:40.495Z,32.17
2023-05-21T07:42:40.518Z,32.18
2023-05-21T07:43:40.578Z,32.16
2023-05-21T07:44:40.623Z,32.11
2023-05-21T07:45:40.670Z,32.14
2023-05-21T07:46:40.758Z,32.13
2023-05-21T07:47:40.768Z,32.12
2023-05-21T07:48:40.773Z,32.16
2023-05-21T07:49:40.824Z,32.22
2023-05-21T07:50:40.844Z,32.19
2023-05-21T07:51:40.904Z,32.17
2023-05-21T07:52:40.950Z,32.16
2023-05-21T07:53:40.984Z,32.14
2023-05-21T07:54:40.989Z,32.15
2023-05-21T07:55:40.989Z,32.14
2023-05-21T07:56:41.031Z,32.14
2023-05-21T07:57:41.111Z,32.11
2023-05-21T07:58:41.209Z,32.12
2023-05-21T07:59:41.168Z,32.17
2023-05-21T08:00:41.205Z,32.14
2023-05-21T08:01:41.283Z,32.16
2023-05-21T08:02:41.379Z,32.15
2023-05-21T08:03:41.355Z,32.10
2023-05-21T08:04:41.596Z,32.09
2023-05-21T08:05:41.382Z,32.13
2023-05-21T08:06:41.398Z,32.13
2023-05-21T08:07:41.429Z,32.12
2023-05-21T08:08:41.416Z,32.13
2023-05-21T08:09:41.463Z,32.13
2023-05-21T08:10:41.514Z,32.13
2023-05-21T08:11:41.560Z,32.12
2023-05-21T08:12:41.564Z,32.13
2023-05-21T08:13:41.601Z,32.13
2023-05-21T08:14:41.636Z,32.13
2023-05-21T08:15:41.678Z,32.14
2023-05-21T08:16:41.759Z,32.14
2023-05-21T08:17:41.892Z,32.18
2023-05-21T08:18:41.908Z,32.11
2023-05-21T08:19:41.891Z,32.13
2023-05-21T08:20:41.965Z,32.12
2023-05-21T08:21:41.981Z,32.15
2023-05-21T08:22:42.034Z,32.13
2023-05-21T08:23:42.141Z,32.10
2023-05-21T08:24:42.162Z,32.12
2023-05-21T08:25:42.214Z,32.13
2023-05-21T08:26:42.281Z,32.15
2023-05-21T08:27:42.312Z,32.20
2023-05-21T08:28:42.372Z,32.15
2023-05-21T08:29:42.414Z,32.17
2023-05-21T08:30:42.952Z,32.14
2023-05-21T08:31:42.550Z,32.12
2023-05-21T08:32:42.624Z,32.08
2023-05-21T08:33:42.665Z,32.11
2023-05-21T08:34:42.712Z,32.15
2023-05-21T08:35:42.966Z,32.11
2023-05-21T08:36:42.831Z,32.09
2023-05-21T08:37:42.866Z,32.11
2023-05-21T08:38:42.906Z,32.09
2023-05-21T08:39:42.976Z,32.13
2023-05-21T08:40:43.039Z,32.13
2023-05-21T08:41:43.085Z,32.18
2023-05-21T08:42:43.166Z,32.17
2023-05-21T08:43:43.211Z,32.13
2023-05-21T08:44:43.260Z,32.16
2023-05-21T08:45:43.333Z,32.20
2023-05-21T08:46:43.368Z,32.17
2023-05-21T08:47:43.487Z,32.14
2023-05-21T08:48:43.487Z,32.14
2023-05-21T08:49:43.534Z,32.17
2023-05-21T08:50:43.615Z,32.15
2023-05-21T08:51:43.624Z,32.10
2023-05-21T08:52:43.700Z,32.11
2023-05-21T08:53:43.768Z,32.16
2023-05-21T08:54:43.816Z,32.16
2023-05-21T08:55:43.897Z,32.18
2023-05-21T08:56:43.945Z,32.15
2023-05-21T08:57:43.992Z,32.16
2023-05-21T08:58:44.052Z,32.13
2023-05-21T08:59:44.098Z,32.20
2023-05-21T09:00:44.169Z,32.18
2023-05-21T09:01:44.238Z,32.16
2023-05-21T09:02:44.357Z,32.17
2023-05-21T09:03:44.331Z,32.11
2023-05-21T09:04:44.385Z,32.09
2023-05-21T09:05:44.390Z,32.06
2023-05-21T09:06:44.446Z,32.06
2023-05-21T09:07:44.465Z,32.04
2023-05-21T09:08:44.537Z,32.06
2023-05-21T09:09:44.591Z,32.04
2023-05-21T09:10:44.660Z,32.04
2023-05-21T09:11:44.707Z,32.03
2023-05-21T09:12:44.747Z,32.02
2023-05-21T09:13:44.779Z,32.00
2023-05-21T09:14:44.892Z,31.98
2023-05-21T09:15:44.891Z,31.97
2023-05-21T09:16:44.960Z,31.94
2023-05-21T09:17:44.999Z,31.91
2023-05-21T09:18:45.095Z,31.93
2023-05-21T09:19:45.077Z,31.90
2023-05-21T09:20:45.109Z,31.93
2023-05-21T09:21:45.155Z,31.93
2023-05-21T09:22:45.206Z,31.90
2023-05-21T09:23:45.243Z,31.88
2023-05-21T09:24:45.299Z,31.87
2023-05-21T09:25:45.353Z,31.87
2023-05-21T09:26:45.387Z,31.85
2023-05-21T09:27:45.418Z,31.85
2023-05-21T09:28:45.486Z,31.82
2023-05-21T09:29:45.528Z,31.82
2023-05-21T09:30:45.585Z,31.78
2023-05-21T09:31:45.750Z,31.77
2023-05-21T09:32:45.734Z,31.74
2023-05-21T09:33:45.705Z,31.77
2023-05-21T09:34:45.775Z,31.75
2023-05-21T09:35:45.822Z,31.74
2023-05-21T09:36:45.854Z,31.70
2023-05-21T09:37:45.910Z,31.74
2023-05-21T09:38:45.990Z,31.73
2023-05-21T09:39:45.971Z,31.69
2023-05-21T09:40:46.047Z,31.69
2023-05-21T09:41:46.058Z,31.65
2023-05-21T09:42:46.102Z,31.65
2023-05-21T09:43:46.133Z,31.66
2023-05-21T09:44:46.188Z,31.64
2023-05-21T09:45:46.234Z,31.64
2023-05-21T09:46:46.310Z,31.62
2023-05-21T09:47:46.390Z,31.60
2023-05-21T09:48:46.349Z,31.58
2023-05-21T09:49:46.420Z,31.57
2023-05-21T09:50:46.454Z,31.55
2023-05-21T09:51:46.486Z,31.50
2023-05-21T09:52:46.523Z,31.43
2023-05-21T09:53:46.560Z,31.46
2023-05-21T09:54:46.593Z,31.44
2023-05-21T09:55:46.698Z,31.42
2023-05-21T09:56:46.699Z,31.42
2023-05-21T09:57:48.129Z,31.40
2023-05-21T09:58:46.749Z,31.36
2023-05-21T09:59:46.704Z,31.34
2023-05-21T10:00:46.709Z,31.32
2023-05-21T10:01:46.741Z,31.32
2023-05-21T10:02:46.766Z,31.30
2023-05-21T10:03:48.170Z,31.31
2023-05-21T10:04:46.782Z,31.29
2023-05-21T10:05:46.627Z,31.30
2023-05-21T10:06:46.596Z,31.25
2023-05-21T10:07:46.584Z,31.22
2023-05-21T10:08:46.552Z,31.21
2023-05-21T10:09:46.542Z,31.22
2023-05-21T10:10:46.534Z,31.15
2023-05-21T10:11:46.506Z,31.14
2023-05-21T10:12:46.490Z,31.13
2023-05-21T10:13:46.474Z,31.08
2023-05-21T10:14:46.460Z,31.11
2023-05-21T10:15:47.071Z,31.07
2023-05-21T10:16:46.451Z,31.04
2023-05-21T10:17:46.452Z,31.02
2023-05-21T10:18:46.442Z,31.02
2023-05-21T10:19:46.377Z,30.99
2023-05-21T10:20:46.364Z,31.01
2023-05-21T10:21:46.339Z,30.99
2023-05-21T10:22:46.330Z,30.98
2023-05-21T10:23:46.300Z,30.97
2023-05-21T10:24:46.304Z,31.00
2023-05-21T10:25:46.284Z,31.02
2023-05-21T10:26:46.270Z,30.99
2023-05-21T10:27:46.270Z,31.00
2023-05-21T10:28:46.305Z,31.00
2023-05-21T10:29:46.340Z,30.98
2023-05-21T10:30:46.387Z,30.98
2023-05-21T10:31:46.460Z,30.98
2023-05-21T10:32:46.685Z,30.90
2023-05-21T10:33:46.508Z,30.88
2023-05-21T10:34:46.542Z,30.93
2023-05-21T10:35:46.599Z,30.92
2023-05-21T10:36:46.626Z,30.90
2023-05-21T10:37:46.666Z,30.90
2023-05-21T10:38:46.697Z,30.89
2023-05-21T10:39:46.752Z,30.84
2023-05-21T10:40:46.780Z,30.80
2023-05-21T10:41:46.819Z,30.81
2023-05-21T10:42:46.854Z,30.80
2023-05-21T10:43:46.924Z,30.80
2023-05-21T10:44:46.939Z,30.81
2023-05-21T10:45:46.998Z,30.77
2023-05-21T10:46:47.018Z,30.76
2023-05-21T10:47:47.142Z,30.77
2023-05-21T10:48:47.097Z,30.77
2023-05-21T10:49:47.124Z,30.75
2023-05-21T10:50:47.163Z,30.76
2023-05-21T10:51:47.247Z,30.81
2023-05-21T10:52:47.233Z,30.76
2023-05-21T10:53:47.270Z,30.73
2023-05-21T10:54:47.305Z,30.74
2023-05-21T10:55:47.359Z,30.74
2023-05-21T10:56:47.393Z,30.69
2023-05-21T10:57:47.406Z,30.70
2023-05-21T10:58:47.449Z,30.71
2023-05-21T10:59:47.551Z,30.68
2023-05-21T11:00:47.605Z,30.65
2023-05-21T11:01:47.664Z,30.68
2023-05-21T11:02:47.693Z,30.67
2023-05-21T11:03:47.666Z,30.64
2023-05-21T11:04:47.665Z,30.66
2023-05-21T11:05:47.709Z,30.64
2023-05-21T11:06:47.801Z,30.61
2023-05-21T11:07:47.780Z,30.62
2023-05-21T11:08:47.817Z,30.60
2023-05-21T11:09:47.838Z,30.62
2023-05-21T11:10:47.883Z,30.61
2023-05-21T11:11:47.918Z,30.56
2023-05-21T11:12:47.951Z,30.59
2023-05-21T11:13:47.988Z,30.52
2023-05-21T11:14:48.023Z,30.57
2023-05-21T11:15:48.063Z,30.54
2023-05-21T11:16:48.148Z,30.54
2023-05-21T11:17:48.185Z,30.50
2023-05-21T11:18:48.237Z,30.53
2023-05-21T11:19:48.167Z,30.51
2023-05-21T11:20:48.171Z,30.47
2023-05-21T11:21:48.132Z,30.54
2023-05-21T11:22:48.137Z,30.53
2023-05-21T11:23:48.089Z,30.51
2023-05-21T11:24:50.502Z,30.49
2023-05-21T11:25:48.071Z,30.49
2023-05-21T11:26:48.059Z,30.51
2023-05-21T11:27:48.035Z,30.47
2023-05-21T11:28:48.021Z,30.47
2023-05-21T11:29:47.989Z,30.50
2023-05-21T11:30:48.035Z,30.52
2023-05-21T11:31:48.010Z,30.45
2023-05-21T11:32:47.948Z,30.51
2023-05-21T11:33:47.934Z,30.49
2023-05-21T11:34:47.938Z,30.47
2023-05-21T11:35:47.888Z,30.47
2023-05-21T11:36:47.882Z,30.46
2023-05-21T11:37:47.859Z,30.47
2023-05-21T11:38:47.841Z,30.49
2023-05-21T11:39:47.819Z,30.45
2023-05-21T11:40:47.795Z,30.46
2023-05-21T11:41:47.780Z,30.50
2023-05-21T11:42:47.769Z,30.51
2023-05-21T11:43:47.749Z,30.50
2023-05-21T11:44:47.727Z,30.49
2023-05-21T11:45:47.716Z,30.52
2023-05-21T11:46:47.724Z,30.53
2023-05-21T11:47:47.666Z,30.51
2023-05-21T11:48:47.665Z,30.48
2023-05-21T11:49:47.621Z,30.49
2023-05-21T11:50:47.612Z,30.48
2023-05-21T11:51:47.608Z,30.49
2023-05-21T11:52:47.565Z,30.45
2023-05-21T11:53:47.553Z,30.47
2023-05-21T11:54:47.545Z,30.49
2023-05-21T11:55:47.498Z,30.46
2023-05-21T11:56:47.481Z,30.49
2023-05-21T11:57:47.475Z,30.45
2023-05-21T11:58:47.447Z,30.45
2023-05-21T11:59:47.430Z,30.46
2023-05-21T12:00:47.432Z,30.46
2023-05-21T12:01:47.403Z,30.43
2023-05-21T12:02:47.535Z,30.40
2023-05-21T12:03:47.449Z,30.42
2023-05-21T12:04:47.359Z,30.46
2023-05-21T12:05:47.384Z,30.43
2023-05-21T12:06:47.377Z,30.45
2023-05-21T12:07:47.426Z,30.42
2023-05-21T12:08:47.470Z,30.42
2023-05-21T12:09:47.523Z,30.41
2023-05-21T12:10:47.558Z,30.40
2023-05-21T12:11:47.591Z,30.39
2023-05-21T12:12:55.720Z,30.35
2023-05-21T12:13:48.688Z,30.33
2023-05-21T12:14:47.612Z,30.31
2023-05-21T12:15:47.628Z,30.30
2023-05-21T12:16:47.646Z,30.30
2023-05-21T12:17:47.589Z,30.32
2023-05-21T12:18:47.602Z,30.33
2023-05-21T12:19:47.538Z,30.26
2023-05-21T12:20:47.533Z,30.24
2023-05-21T12:21:47.509Z,30.34
2023-05-21T12:22:47.474Z,30.31
2023-05-21T12:23:47.466Z,30.33
2023-05-21T12:24:47.449Z,30.32
2023-05-21T12:25:47.451Z,30.35
2023-05-21T12:26:47.434Z,30.38
2023-05-21T12:27:47.409Z,30.32
2023-05-21T12:28:47.403Z,30.31
2023-05-21T12:29:47.377Z,30.24
2023-05-21T12:30:47.383Z,30.25
2023-05-21T12:31:47.355Z,30.24
2023-05-21T12:32:47.345Z,30.19
2023-05-21T12:33:47.330Z,30.25
2023-05-21T12:34:47.306Z,30.25
2023-05-21T12:35:47.302Z,30.21
2023-05-21T12:36:47.294Z,30.18
2023-05-21T12:37:47.258Z,30.17
2023-05-21T12:38:47.231Z,30.22
2023-05-21T12:39:47.221Z,30.18
2023-05-21T12:40:47.219Z,30.21
2023-05-21T12:41:47.205Z,30.19
2023-05-21T12:42:47.190Z,30.19
2023-05-21T12:43:47.186Z,30.20
2023-05-21T12:44:47.169Z,30.18
2023-05-21T12:45:47.234Z,30.19
2023-05-21T12:46:47.271Z,30.20
2023-05-21T12:47:47.307Z,30.26
2023-05-21T12:48:47.324Z,30.25
2023-05-21T12:49:47.367Z,30.22
2023-05-21T12:50:47.412Z,30.20
2023-05-21T12:51:47.438Z,30.24
2023-05-21T12:52:47.491Z,30.23